Time;durP1;ratioP1;P1;durP2;ratioP2;P2;SDS_P1;SDS_P2;PMS_P1;PMS_P2;Temp;Humidity;BMP_temperature;BMP_pressure;BME280_temperature;BME280_humidity;BME280_pressure;Samples;Min_cycle;Max_cycle;Signal;HPM_P1;HPM_P2
2021/05/18 00:05:43;;;;;;;4.40;1.80;;;;;;;10.05;100.00;99992.53;20883569;28;20130;-69
2021/05/18 00:15:45;;;;;;;7.53;1.83;;;;;;;10.05;100.00;99999.53;20866663;28;20488;-69
2021/05/18 00:25:47;;;;;;;2.95;1.42;;;;;;;9.98;100.00;100001.66;20889748;28;20369;-69
2021/05/18 00:35:50;;;;;;;5.18;1.48;;;;;;;9.97;100.00;100005.19;20885437;28;20095;-69
2021/05/18 00:45:52;;;;;;;4.13;1.50;;;;;;;9.91;100.00;100002.91;20874896;28;20413;-69
2021/05/18 00:56:06;;;;;;;4.10;1.70;;;;;;;9.88;100.00;99997.88;20871605;28;20049;-69
2021/05/18 01:06:20;;;;;;;4.40;1.73;;;;;;;9.95;100.00;99999.22;20875863;28;20091;-70
2021/05/18 01:16:24;;;;;;;4.38;1.83;;;;;;;9.86;100.00;99991.88;20853789;28;20511;-70
2021/05/18 01:26:28;;;;;;;4.35;1.50;;;;;;;9.63;100.00;100002.81;20885918;28;20115;-70
2021/05/18 01:36:32;;;;;;;3.50;1.50;;;;;;;9.52;100.00;100010.44;20849114;28;20421;-68
2021/05/18 01:46:34;;;;;;;3.65;1.60;;;;;;;9.35;100.00;100003.53;20827063;28;20500;-70
2021/05/18 01:56:50;;;;;;;4.13;1.60;;;;;;;9.15;100.00;100012.44;20826385;28;20045;-69
2021/05/18 02:06:54;;;;;;;4.28;1.33;;;;;;;9.23;100.00;100017.28;20819903;28;20045;-69
2021/05/18 02:17:05;;;;;;;6.40;1.40;;;;;;;9.19;100.00;100029.66;20825078;28;20053;-69
2021/05/18 02:27:07;;;;;;;2.90;0.90;;;;;;;9.26;100.00;100040.59;20825897;28;20091;-69
2021/05/18 02:37:08;;;;;;;5.38;1.20;;;;;;;9.16;100.00;100040.25;20825069;28;20080;-68
2021/05/18 02:57:35;;;;;;;4.25;1.30;;;;;;;9.17;100.00;100057.63;20822899;28;20072;-69
2021/05/18 03:07:37;;;;;;;3.72;1.40;;;;;;;9.13;100.00;100063.94;20877201;28;20037;-70
2021/05/18 03:17:40;;;;;;;3.35;1.35;;;;;;;9.15;100.00;100058.59;20881438;28;20044;-68
2021/05/18 03:27:42;;;;;;;2.70;1.23;;;;;;;9.16;100.00;100071.59;20881606;28;20091;-69
2021/05/18 03:37:53;;;;;;;2.90;1.58;;;;;;;9.06;100.00;100080.84;20895468;28;20098;-69
2021/05/18 03:58:38;;;;;;;7.63;2.40;;;;;;;9.08;100.00;100097.28;20875697;28;20094;-70
2021/05/18 04:19:11;;;;;;;6.93;3.47;;;;;;;9.26;100.00;100119.78;20815572;28;20057;-70
2021/05/18 04:40:23;;;;;;;6.15;3.20;;;;;;;9.66;100.00;100122.84;20813722;28;20464;-70
2021/05/18 05:00:27;;;;;;;5.30;2.65;;;;;;;9.85;100.00;100144.47;20819204;28;20045;-70
2021/05/18 05:20:42;;;;;;;5.00;2.50;;;;;;;9.75;100.00;100158.97;20888725;28;20045;-69
2021/05/18 05:30:45;;;;;;;4.78;2.58;;;;;;;9.84;100.00;100163.69;20879021;28;20053;-68
2021/05/18 05:40:46;;;;;;;4.10;2.10;;;;;;;9.99;100.00;100165.44;20902326;28;20480;-69
2021/05/18 05:50:48;;;;;;;5.22;2.08;;;;;;;10.14;100.00;100167.19;20884692;28;20049;-69
2021/05/18 06:00:50;;;;;;;8.25;2.50;;;;;;;10.80;100.00;100161.66;20887795;28;20053;-70
2021/05/18 06:11:02;;;;;;;6.30;2.60;;;;;;;10.91;100.00;100174.13;20894009;28;20061;-70
2021/05/18 06:51:48;;;;;;;5.75;1.70;;;;;;;12.33;96.00;100211.63;20878079;28;20045;-71
2021/05/18 07:01:49;;;;;;;4.90;1.83;;;;;;;12.26;96.87;100215.56;20884244;28;20637;-70
2021/05/18 07:11:52;;;;;;;10.10;2.40;;;;;;;12.44;96.05;100235.38;20882352;28;20053;-71
2021/05/18 07:21:53;;;;;;;9.07;2.10;;;;;;;11.87;100.00;100239.91;20882535;28;20095;-71
2021/05/18 07:31:55;;;;;;;5.75;2.00;;;;;;;12.03;100.00;100250.28;20887222;28;20458;-70
2021/05/18 07:41:56;;;;;;;6.40;2.13;;;;;;;12.21;99.99;100249.13;20886707;28;20049;-70
2021/05/18 08:02:31;;;;;;;5.20;1.98;;;;;;;13.11;94.57;100238.81;20868691;28;20107;-70
2021/05/18 08:12:33;;;;;;;7.87;1.87;;;;;;;13.30;90.50;100226.16;20882142;28;20099;-68
2021/05/18 08:23:02;;;;;;;6.50;2.20;;;;;;;13.27;91.13;100237.69;20892125;28;20041;-69
2021/05/18 10:18:04;;;;;;;3.42;0.80;;;;;;;14.23;67.55;100161.66;20896399;28;20058;-70
2021/05/18 10:38:02;;;;;;;4.90;0.90;;;;;;;15.66;62.12;100160.34;20859795;28;20111;-70
2021/05/18 10:48:04;;;;;;;2.80;0.60;;;;;;;13.56;70.17;100148.91;20877657;28;20049;-70
2021/05/18 10:58:17;;;;;;;4.07;1.00;;;;;;;12.58;88.33;100159.19;20857352;28;20488;-69
2021/05/18 11:08:19;;;;;;;2.95;1.00;;;;;;;12.97;88.22;100154.81;20861828;28;20049;-69
2021/05/18 11:18:29;;;;;;;3.30;0.60;;;;;;;12.49;81.08;100166.84;20866418;28;20050;-70
2021/05/18 11:28:49;;;;;;;2.58;0.80;;;;;;;12.25;88.40;100149.09;20847011;28;20037;-70
2021/05/18 11:38:57;;;;;;;1.85;0.60;;;;;;;12.21;84.42;100133.66;20863573;28;20041;-70
2021/05/18 11:49:08;;;;;;;3.08;0.68;;;;;;;13.49;80.94;100116.13;20877348;28;20045;-70
2021/05/18 11:59:14;;;;;;;2.92;0.80;;;;;;;14.35;74.00;100108.94;20882016;28;20144;-70
2021/05/18 12:09:16;;;;;;;1.55;0.40;;;;;;;14.11;67.78;100114.25;20881701;28;20045;-70
2021/05/18 12:19:20;;;;;;;1.60;0.30;;;;;;;14.58;64.59;100090.63;20872537;28;20103;-72
2021/05/18 12:29:37;;;;;;;1.70;0.30;;;;;;;14.81;58.72;100081.81;20891252;28;20641;-70
2021/05/18 12:39:42;;;;;;;2.05;0.50;;;;;;;14.88;55.06;100073.28;20902035;28;20037;-71
2021/05/18 12:49:49;;;;;;;1.70;0.30;;;;;;;14.86;55.01;100080.50;20880923;28;20056;-69
2021/05/18 13:00:12;;;;;;;0.60;0.30;;;;;;;15.11;57.42;100074.16;20874137;28;20512;-71
2021/05/18 13:10:27;;;;;;;2.58;0.57;;;;;;;15.72;55.47;100067.50;20903393;28;20040;-71
2021/05/18 13:20:43;;;;;;;1.25;0.22;;;;;;;15.98;53.55;100057.47;20889070;28;20060;-71
2021/05/18 13:30:45;;;;;;;;;;;;;;;16.29;53.10;100047.88;20918446;28;20132;-71
2021/05/18 13:40:49;;;;;;;2.00;0.60;;;;;;;15.56;60.16;100045.97;20907151;28;19921;-71
2021/05/18 13:50:51;;;;;;;1.77;0.52;;;;;;;14.90;56.90;100076.66;20895930;28;20048;-71
2021/05/18 14:00:53;;;;;;;5.53;0.77;;;;;;;13.63;78.24;100087.06;20922605;28;20061;-71
2021/05/18 14:10:56;;;;;;;2.63;0.70;;;;;;;13.45;75.31;100085.75;20920091;28;20072;-70
2021/05/18 14:21:00;;;;;;;4.20;1.00;;;;;;;14.12;77.28;100067.69;20905448;28;20044;-70
2021/05/18 14:31:08;;;;;;;4.93;1.00;;;;;;;14.34;77.10;100057.25;20904761;28;20052;-70
2021/05/18 15:01:43;;;;;;;1.48;0.50;;;;;;;13.83;76.31;100077.72;20911301;28;20057;-70
2021/05/18 15:11:45;;;;;;;1.83;0.68;;;;;;;12.90;73.38;100090.53;20915506;28;20041;-70
2021/05/18 15:21:47;;;;;;;3.92;0.88;;;;;;;12.01;88.23;100111.34;20902178;28;20053;-73
2021/05/18 15:31:50;;;;;;;2.28;0.90;;;;;;;12.27;88.66;100097.38;20923697;28;20049;-70
2021/05/18 15:41:52;;;;;;;3.58;0.80;;;;;;;13.02;91.17;100089.66;20905374;28;20544;-69
2021/05/18 15:51:54;;;;;;;4.10;1.27;;;;;;;13.58;84.29;100073.41;20884045;28;20555;-68
2021/05/18 16:01:57;;;;;;;2.83;0.88;;;;;;;13.55;85.10;100081.53;20886589;28;20041;-68
2021/05/18 16:11:59;;;;;;;4.85;1.15;;;;;;;13.90;83.95;100076.34;20890289;28;20102;-68
2021/05/18 16:22:02;;;;;;;4.45;1.13;;;;;;;13.29;90.54;100087.78;20858037;28;20049;-70
2021/05/18 16:32:04;;;;;;;2.83;0.88;;;;;;;12.00;85.41;100109.66;20876874;28;20085;-69
2021/05/18 16:42:06;;;;;;;2.75;0.90;;;;;;;12.23;86.72;100108.19;20861202;28;20049;-70
2021/05/18 16:52:08;;;;;;;4.30;0.80;;;;;;;12.64;85.18;100106.28;20889388;28;20098;-70
2021/05/18 17:02:10;;;;;;;1.63;0.70;;;;;;;12.58;84.73;100114.56;20857928;28;20472;-70
2021/05/18 17:12:18;;;;;;;2.95;0.70;;;;;;;12.32;88.73;100146.94;20904811;28;20100;-70
2021/05/18 17:22:20;;;;;;;2.63;0.50;;;;;;;12.37;83.19;100160.59;20906897;28;20049;-69
2021/05/18 17:32:22;;;;;;;1.95;0.60;;;;;;;12.47;78.42;100172.19;20885424;28;20063;-69
2021/05/18 17:42:25;;;;;;;0.52;0.20;;;;;;;11.78;78.35;100177.56;20885777;28;20076;-70
2021/05/18 17:52:28;;;;;;;2.17;0.50;;;;;;;11.63;79.21;100183.72;20886027;28;20106;-70
2021/05/18 18:02:29;;;;;;;2.35;0.32;;;;;;;11.88;78.29;100184.75;20885496;28;20053;-70
2021/05/18 18:12:32;;;;;;;0.60;0.40;;;;;;;12.07;77.93;100183.56;20898118;28;20049;-70
2021/05/18 18:22:33;;;;;;;0.60;0.20;;;;;;;11.90;76.63;100180.22;20885091;28;20049;-70
2021/05/18 18:32:35;;;;;;;1.77;0.70;;;;;;;11.86;80.00;100191.00;20891199;28;20491;-70
2021/05/18 18:42:39;;;;;;;0.95;0.50;;;;;;;11.71;81.77;100202.41;20898303;28;20129;-70
2021/05/18 19:03:08;;;;;;;1.23;0.55;;;;;;;11.35;82.59;100211.59;20904432;28;20095;-70
2021/05/18 19:13:10;;;;;;;0.80;0.60;;;;;;;11.29;82.35;100217.22;20891924;28;20535;-70
2021/05/18 19:23:13;;;;;;;1.92;0.80;;;;;;;11.19;85.66;100233.56;20854764;28;20071;-70
2021/05/18 19:33:17;;;;;;;6.22;1.40;;;;;;;11.15;87.27;100248.63;20886567;28;20049;-71
2021/05/18 19:43:29;;;;;;;4.97;1.40;;;;;;;11.00;89.35;100252.16;20872113;28;20048;-70
2021/05/18 19:53:36;;;;;;;2.35;0.70;;;;;;;10.87;90.01;100262.47;20883787;28;20037;-71
2021/05/18 20:24:18;;;;;;;2.80;0.75;;;;;;;10.76;89.14;100275.34;20889524;28;20071;-71
2021/05/18 20:34:58;;;;;;;2.33;0.88;;;;;;;10.79;88.39;100284.78;20894169;28;20095;-69
2021/05/18 20:44:42;;;;;;;1.90;0.80;;;;;;;10.75;87.27;100294.59;20893022;28;20118;-69
2021/05/18 20:54:44;;;;;;;4.65;1.15;;;;;;;10.81;87.01;100288.19;20884676;28;20148;-67
2021/05/18 21:04:46;;;;;;;1.52;0.80;;;;;;;10.77;87.59;100297.97;20891194;28;20049;-67
2021/05/18 21:25:09;;;;;;;1.50;0.73;;;;;;;10.73;90.15;100320.03;20894614;28;20045;-68
2021/05/18 21:35:11;;;;;;;4.32;1.38;;;;;;;10.73;92.29;100330.50;20880317;28;20493;-68
2021/05/18 21:45:13;;;;;;;3.00;1.35;;;;;;;10.71;94.54;100327.97;20888630;28;20045;-67
2021/05/18 21:55:16;;;;;;;1.88;1.00;;;;;;;10.62;93.67;100338.09;20894809;28;20045;-68
2021/05/18 22:05:22;;;;;;;2.95;0.80;;;;;;;10.51;95.23;100345.72;20889601;28;20082;-67
2021/05/18 22:36:05;;;;;;;6.03;1.58;;;;;;;9.92;100.00;100354.94;20887980;28;20053;-68
2021/05/18 22:46:07;;;;;;;6.72;1.40;;;;;;;9.92;100.00;100365.41;20874129;28;20103;-68
2021/05/18 22:56:09;;;;;;;3.85;1.38;;;;;;;9.93;100.00;100367.09;20882432;28;20463;-68
2021/05/18 23:06:11;;;;;;;3.80;1.33;;;;;;;9.80;100.00;100369.47;20870127;28;20041;-69
2021/05/18 23:16:14;;;;;;;5.45;1.20;;;;;;;9.83;100.00;100381.56;20872987;28;20046;-68
2021/05/18 23:26:16;;;;;;;7.32;2.40;;;;;;;9.77;100.00;100397.56;20876888;28;20037;-68
2021/05/18 23:36:19;;;;;;;4.18;1.70;;;;;;;9.73;100.00;100378.56;20882685;28;20094;-69
2021/05/18 23:46:21;;;;;;;4.28;1.80;;;;;;;9.76;100.00;100378.41;20882401;28;20045;-68
2021/05/18 23:56:23;;;;;;;2.75;1.30;;;;;;;9.66;99.57;100377.19;20893585;28;20045;-69
